sensor_id;sensor_type;location;lat;lon;timestamp;P1;durP1;ratioP1;P2;durP2;ratioP2
4074;SDS011;2052;53.522;9.806;2022-08-18T00:02:03;12.10;;;8.90;;
4074;SDS011;2052;53.522;9.806;2022-08-18T00:04:31;9.80;;;8.20;;
4074;SDS011;2052;53.522;9.806;2022-08-18T00:07:00;9.63;;;7.13;;
4074;SDS011;2052;53.522;9.806;2022-08-18T00:09:26;12.50;;;8.20;;
4074;SDS011;2052;53.522;9.806;2022-08-18T00:11:54;13.37;;;8.50;;
4074;SDS011;2052;53.522;9.806;2022-08-18T00:14:22;8.67;;;6.80;;
4074;SDS011;2052;53.522;9.806;2022-08-18T00:16:50;10.67;;;6.47;;
4074;SDS011;2052;53.522;9.806;2022-08-18T00:19:18;7.17;;;5.33;;
4074;SDS011;2052;53.522;9.806;2022-08-18T00:21:45;8.67;;;6.40;;
4074;SDS011;2052;53.522;9.806;2022-08-18T00:24:11;7.50;;;5.63;;
4074;SDS011;2052;53.522;9.806;2022-08-18T00:26:38;8.07;;;5.63;;
4074;SDS011;2052;53.522;9.806;2022-08-18T00:29:06;11.00;;;5.90;;
4074;SDS011;2052;53.522;9.806;2022-08-18T00:31:33;7.93;;;6.07;;
4074;SDS011;2052;53.522;9.806;2022-08-18T00:34:00;11.50;;;6.00;;
4074;SDS011;2052;53.522;9.806;2022-08-18T00:36:27;8.17;;;5.77;;
4074;SDS011;2052;53.522;9.806;2022-08-18T00:38:55;6.90;;;5.77;;
4074;SDS011;2052;53.522;9.806;2022-08-18T00:41:22;7.53;;;6.00;;
4074;SDS011;2052;53.522;9.806;2022-08-18T00:43:50;6.90;;;5.60;;
4074;SDS011;2052;53.522;9.806;2022-08-18T00:46:19;10.23;;;6.17;;
4074;SDS011;2052;53.522;9.806;2022-08-18T00:48:49;11.13;;;6.40;;
4074;SDS011;2052;53.522;9.806;2022-08-18T00:51:17;8.10;;;6.47;;
4074;SDS011;2052;53.522;9.806;2022-08-18T00:53:48;14.40;;;6.87;;
4074;SDS011;2052;53.522;9.806;2022-08-18T00:56:26;9.40;;;6.23;;
4074;SDS011;2052;53.522;9.806;2022-08-18T00:58:56;14.50;;;6.63;;
4074;SDS011;2052;53.522;9.806;2022-08-18T01:01:27;9.90;;;7.03;;
4074;SDS011;2052;53.522;9.806;2022-08-18T01:03:58;10.90;;;7.13;;
4074;SDS011;2052;53.522;9.806;2022-08-18T01:06:28;11.10;;;7.57;;
4074;SDS011;2052;53.522;9.806;2022-08-18T01:08:59;10.60;;;8.93;;
4074;SDS011;2052;53.522;9.806;2022-08-18T01:11:27;16.73;;;10.30;;
4074;SDS011;2052;53.522;9.806;2022-08-18T01:13:54;14.00;;;10.87;;
4074;SDS011;2052;53.522;9.806;2022-08-18T01:16:20;11.20;;;10.00;;
4074;SDS011;2052;53.522;9.806;2022-08-18T01:19:06;14.57;;;10.37;;
4074;SDS011;2052;53.522;9.806;2022-08-18T01:21:52;14.10;;;10.40;;
4074;SDS011;2052;53.522;9.806;2022-08-18T01:24:25;11.87;;;9.20;;
4074;SDS011;2052;53.522;9.806;2022-08-18T01:27:07;13.83;;;10.93;;
4074;SDS011;2052;53.522;9.806;2022-08-18T01:29:35;15.50;;;10.50;;
4074;SDS011;2052;53.522;9.806;2022-08-18T01:32:02;17.60;;;10.70;;
4074;SDS011;2052;53.522;9.806;2022-08-18T01:34:29;13.67;;;10.20;;
4074;SDS011;2052;53.522;9.806;2022-08-18T01:36:56;13.53;;;9.83;;
4074;SDS011;2052;53.522;9.806;2022-08-18T01:39:24;9.37;;;8.13;;
4074;SDS011;2052;53.522;9.806;2022-08-18T01:41:51;11.83;;;9.43;;
4074;SDS011;2052;53.522;9.806;2022-08-18T01:44:18;13.63;;;10.30;;
4074;SDS011;2052;53.522;9.806;2022-08-18T01:46:44;15.33;;;10.10;;
4074;SDS011;2052;53.522;9.806;2022-08-18T01:49:11;12.73;;;10.43;;
4074;SDS011;2052;53.522;9.806;2022-08-18T01:51:38;12.50;;;10.63;;
4074;SDS011;2052;53.522;9.806;2022-08-18T01:54:08;11.87;;;9.13;;
4074;SDS011;2052;53.522;9.806;2022-08-18T01:56:38;13.93;;;9.87;;
4074;SDS011;2052;53.522;9.806;2022-08-18T01:59:06;12.33;;;10.07;;
4074;SDS011;2052;53.522;9.806;2022-08-18T02:01:39;15.03;;;10.57;;
4074;SDS011;2052;53.522;9.806;2022-08-18T02:04:06;14.60;;;10.60;;
4074;SDS011;2052;53.522;9.806;2022-08-18T02:06:33;12.03;;;10.07;;
4074;SDS011;2052;53.522;9.806;2022-08-18T02:09:00;14.43;;;10.00;;
4074;SDS011;2052;53.522;9.806;2022-08-18T02:11:26;12.87;;;9.43;;
4074;SDS011;2052;53.522;9.806;2022-08-18T02:13:54;14.07;;;10.40;;
4074;SDS011;2052;53.522;9.806;2022-08-18T02:16:21;15.77;;;11.40;;
4074;SDS011;2052;53.522;9.806;2022-08-18T02:18:48;12.80;;;10.13;;
4074;SDS011;2052;53.522;9.806;2022-08-18T02:21:16;13.20;;;10.13;;
4074;SDS011;2052;53.522;9.806;2022-08-18T02:23:44;15.73;;;11.97;;
4074;SDS011;2052;53.522;9.806;2022-08-18T02:26:12;18.43;;;11.50;;
4074;SDS011;2052;53.522;9.806;2022-08-18T02:28:40;14.27;;;10.97;;
4074;SDS011;2052;53.522;9.806;2022-08-18T02:31:09;17.47;;;12.10;;
4074;SDS011;2052;53.522;9.806;2022-08-18T02:33:38;17.10;;;11.67;;
4074;SDS011;2052;53.522;9.806;2022-08-18T02:36:05;16.50;;;11.57;;
4074;SDS011;2052;53.522;9.806;2022-08-18T02:38:33;12.73;;;9.90;;
4074;SDS011;2052;53.522;9.806;2022-08-18T02:41:01;18.10;;;11.40;;
4074;SDS011;2052;53.522;9.806;2022-08-18T02:43:30;18.53;;;11.67;;
4074;SDS011;2052;53.522;9.806;2022-08-18T02:45:57;19.20;;;11.73;;
4074;SDS011;2052;53.522;9.806;2022-08-18T02:48:25;17.10;;;10.70;;
4074;SDS011;2052;53.522;9.806;2022-08-18T02:50:58;16.30;;;10.70;;
4074;SDS011;2052;53.522;9.806;2022-08-18T02:53:25;14.23;;;11.03;;
4074;SDS011;2052;53.522;9.806;2022-08-18T02:55:53;12.80;;;11.10;;
4074;SDS011;2052;53.522;9.806;2022-08-18T02:58:19;17.00;;;12.77;;
4074;SDS011;2052;53.522;9.806;2022-08-18T03:00:46;15.07;;;10.90;;
4074;SDS011;2052;53.522;9.806;2022-08-18T03:03:13;20.93;;;11.70;;
4074;SDS011;2052;53.522;9.806;2022-08-18T03:05:41;22.50;;;12.40;;
4074;SDS011;2052;53.522;9.806;2022-08-18T03:08:07;17.17;;;12.47;;
4074;SDS011;2052;53.522;9.806;2022-08-18T03:10:34;15.97;;;12.00;;
4074;SDS011;2052;53.522;9.806;2022-08-18T03:13:02;19.07;;;13.90;;
4074;SDS011;2052;53.522;9.806;2022-08-18T03:15:29;16.13;;;12.37;;
4074;SDS011;2052;53.522;9.806;2022-08-18T03:17:55;20.37;;;13.50;;
4074;SDS011;2052;53.522;9.806;2022-08-18T03:20:22;17.00;;;12.33;;
4074;SDS011;2052;53.522;9.806;2022-08-18T03:22:50;20.63;;;13.83;;
4074;SDS011;2052;53.522;9.806;2022-08-18T03:25:17;18.93;;;12.53;;
4074;SDS011;2052;53.522;9.806;2022-08-18T03:27:44;16.23;;;12.57;;
4074;SDS011;2052;53.522;9.806;2022-08-18T03:30:11;18.70;;;12.77;;
4074;SDS011;2052;53.522;9.806;2022-08-18T03:32:37;16.80;;;12.50;;
4074;SDS011;2052;53.522;9.806;2022-08-18T03:35:05;15.83;;;11.90;;
4074;SDS011;2052;53.522;9.806;2022-08-18T03:37:32;15.20;;;11.80;;
4074;SDS011;2052;53.522;9.806;2022-08-18T03:40:00;15.50;;;11.80;;
4074;SDS011;2052;53.522;9.806;2022-08-18T03:42:28;17.40;;;12.10;;
4074;SDS011;2052;53.522;9.806;2022-08-18T03:44:55;17.93;;;12.47;;
4074;SDS011;2052;53.522;9.806;2022-08-18T03:47:22;18.43;;;12.10;;
4074;SDS011;2052;53.522;9.806;2022-08-18T03:49:48;18.10;;;11.83;;
4074;SDS011;2052;53.522;9.806;2022-08-18T03:52:15;16.67;;;12.63;;
4074;SDS011;2052;53.522;9.806;2022-08-18T03:54:42;13.83;;;11.77;;
4074;SDS011;2052;53.522;9.806;2022-08-18T03:57:10;18.57;;;12.93;;
4074;SDS011;2052;53.522;9.806;2022-08-18T03:59:38;17.80;;;12.27;;
4074;SDS011;2052;53.522;9.806;2022-08-18T04:02:07;18.03;;;12.03;;
4074;SDS011;2052;53.522;9.806;2022-08-18T04:04:35;16.50;;;12.73;;
4074;SDS011;2052;53.522;9.806;2022-08-18T04:07:02;16.50;;;12.60;;
4074;SDS011;2052;53.522;9.806;2022-08-18T04:09:33;18.00;;;13.33;;
4074;SDS011;2052;53.522;9.806;2022-08-18T04:12:03;18.40;;;13.17;;
4074;SDS011;2052;53.522;9.806;2022-08-18T04:14:35;16.90;;;13.30;;
4074;SDS011;2052;53.522;9.806;2022-08-18T04:17:02;17.20;;;13.10;;
4074;SDS011;2052;53.522;9.806;2022-08-18T04:19:29;16.27;;;12.80;;
4074;SDS011;2052;53.522;9.806;2022-08-18T04:21:58;22.50;;;15.00;;
4074;SDS011;2052;53.522;9.806;2022-08-18T04:24:27;17.70;;;12.90;;
4074;SDS011;2052;53.522;9.806;2022-08-18T04:26:55;17.70;;;13.27;;
4074;SDS011;2052;53.522;9.806;2022-08-18T04:29:23;18.23;;;13.67;;
4074;SDS011;2052;53.522;9.806;2022-08-18T04:31:51;17.00;;;11.90;;
4074;SDS011;2052;53.522;9.806;2022-08-18T04:34:19;17.13;;;13.47;;
4074;SDS011;2052;53.522;9.806;2022-08-18T04:36:47;17.23;;;12.17;;
4074;SDS011;2052;53.522;9.806;2022-08-18T04:39:17;18.73;;;13.03;;
4074;SDS011;2052;53.522;9.806;2022-08-18T04:41:44;15.33;;;12.13;;
4074;SDS011;2052;53.522;9.806;2022-08-18T04:44:12;18.40;;;13.23;;
4074;SDS011;2052;53.522;9.806;2022-08-18T04:46:43;19.07;;;13.03;;
4074;SDS011;2052;53.522;9.806;2022-08-18T04:49:13;21.20;;;12.57;;
4074;SDS011;2052;53.522;9.806;2022-08-18T04:51:41;17.73;;;12.20;;
4074;SDS011;2052;53.522;9.806;2022-08-18T04:54:29;14.73;;;11.20;;
4074;SDS011;2052;53.522;9.806;2022-08-18T04:56:55;16.13;;;11.07;;
4074;SDS011;2052;53.522;9.806;2022-08-18T04:59:22;15.33;;;10.50;;
4074;SDS011;2052;53.522;9.806;2022-08-18T05:01:49;16.03;;;9.93;;
4074;SDS011;2052;53.522;9.806;2022-08-18T05:04:17;14.07;;;9.50;;
4074;SDS011;2052;53.522;9.806;2022-08-18T05:06:44;14.37;;;10.00;;
4074;SDS011;2052;53.522;9.806;2022-08-18T05:09:12;17.53;;;11.40;;
4074;SDS011;2052;53.522;9.806;2022-08-18T05:11:40;14.90;;;11.37;;
4074;SDS011;2052;53.522;9.806;2022-08-18T05:14:08;15.83;;;11.10;;
4074;SDS011;2052;53.522;9.806;2022-08-18T05:16:35;14.80;;;10.87;;
4074;SDS011;2052;53.522;9.806;2022-08-18T05:19:03;14.57;;;11.53;;
4074;SDS011;2052;53.522;9.806;2022-08-18T05:21:31;13.30;;;10.27;;
4074;SDS011;2052;53.522;9.806;2022-08-18T05:23:58;13.70;;;11.23;;
4074;SDS011;2052;53.522;9.806;2022-08-18T05:26:26;13.90;;;10.70;;
4074;SDS011;2052;53.522;9.806;2022-08-18T05:28:53;15.07;;;10.07;;
4074;SDS011;2052;53.522;9.806;2022-08-18T05:31:20;17.17;;;10.90;;
4074;SDS011;2052;53.522;9.806;2022-08-18T05:33:48;12.93;;;10.73;;
4074;SDS011;2052;53.522;9.806;2022-08-18T05:36:18;12.43;;;10.70;;
4074;SDS011;2052;53.522;9.806;2022-08-18T05:39:08;14.27;;;10.83;;
4074;SDS011;2052;53.522;9.806;2022-08-18T05:41:40;20.80;;;11.67;;
4074;SDS011;2052;53.522;9.806;2022-08-18T05:44:11;15.53;;;11.93;;
4074;SDS011;2052;53.522;9.806;2022-08-18T05:46:41;15.10;;;11.47;;
4074;SDS011;2052;53.522;9.806;2022-08-18T05:49:11;14.00;;;11.53;;
4074;SDS011;2052;53.522;9.806;2022-08-18T05:51:40;13.77;;;9.63;;
4074;SDS011;2052;53.522;9.806;2022-08-18T05:54:09;12.50;;;11.10;;
4074;SDS011;2052;53.522;9.806;2022-08-18T05:56:55;16.20;;;11.60;;
4074;SDS011;2052;53.522;9.806;2022-08-18T05:59:24;15.93;;;10.43;;
4074;SDS011;2052;53.522;9.806;2022-08-18T06:01:55;15.40;;;11.50;;
4074;SDS011;2052;53.522;9.806;2022-08-18T06:04:28;17.47;;;12.63;;
4074;SDS011;2052;53.522;9.806;2022-08-18T06:07:04;16.30;;;13.20;;
4074;SDS011;2052;53.522;9.806;2022-08-18T06:09:35;18.70;;;13.23;;
4074;SDS011;2052;53.522;9.806;2022-08-18T06:12:06;20.40;;;13.90;;
4074;SDS011;2052;53.522;9.806;2022-08-18T06:14:44;23.30;;;15.60;;
4074;SDS011;2052;53.522;9.806;2022-08-18T06:17:16;22.13;;;16.07;;
4074;SDS011;2052;53.522;9.806;2022-08-18T06:19:54;22.33;;;17.03;;
4074;SDS011;2052;53.522;9.806;2022-08-18T06:22:25;21.40;;;16.53;;
4074;SDS011;2052;53.522;9.806;2022-08-18T06:24:57;26.83;;;18.47;;
4074;SDS011;2052;53.522;9.806;2022-08-18T06:27:29;27.87;;;18.47;;
4074;SDS011;2052;53.522;9.806;2022-08-18T06:30:04;31.53;;;20.73;;
4074;SDS011;2052;53.522;9.806;2022-08-18T06:32:40;36.33;;;22.87;;
4074;SDS011;2052;53.522;9.806;2022-08-18T06:35:18;48.43;;;27.10;;
4074;SDS011;2052;53.522;9.806;2022-08-18T06:37:53;43.60;;;27.37;;
4074;SDS011;2052;53.522;9.806;2022-08-18T06:40:44;44.70;;;27.40;;
4074;SDS011;2052;53.522;9.806;2022-08-18T06:43:12;52.33;;;27.37;;
4074;SDS011;2052;53.522;9.806;2022-08-18T06:45:41;51.43;;;28.57;;
4074;SDS011;2052;53.522;9.806;2022-08-18T06:48:13;50.07;;;28.00;;
4074;SDS011;2052;53.522;9.806;2022-08-18T06:50:47;58.40;;;31.50;;
4074;SDS011;2052;53.522;9.806;2022-08-18T06:53:15;60.90;;;31.03;;
4074;SDS011;2052;53.522;9.806;2022-08-18T06:55:44;62.90;;;31.40;;
4074;SDS011;2052;53.522;9.806;2022-08-18T06:58:20;59.27;;;31.80;;
4074;SDS011;2052;53.522;9.806;2022-08-18T07:00:53;56.73;;;31.10;;
4074;SDS011;2052;53.522;9.806;2022-08-18T07:03:22;53.60;;;30.40;;
4074;SDS011;2052;53.522;9.806;2022-08-18T07:06:00;57.50;;;30.30;;
4074;SDS011;2052;53.522;9.806;2022-08-18T07:08:29;60.50;;;31.93;;
4074;SDS011;2052;53.522;9.806;2022-08-18T07:11:09;59.87;;;28.23;;
4074;SDS011;2052;53.522;9.806;2022-08-18T07:13:37;57.67;;;30.13;;
4074;SDS011;2052;53.522;9.806;2022-08-18T07:16:14;50.50;;;28.53;;
4074;SDS011;2052;53.522;9.806;2022-08-18T07:18:42;49.70;;;29.67;;
4074;SDS011;2052;53.522;9.806;2022-08-18T07:21:10;47.80;;;28.20;;
4074;SDS011;2052;53.522;9.806;2022-08-18T07:23:57;50.30;;;27.47;;
4074;SDS011;2052;53.522;9.806;2022-08-18T07:26:26;49.53;;;27.90;;
4074;SDS011;2052;53.522;9.806;2022-08-18T07:28:53;49.63;;;28.43;;
4074;SDS011;2052;53.522;9.806;2022-08-18T07:31:33;65.83;;;32.33;;
4074;SDS011;2052;53.522;9.806;2022-08-18T07:34:03;60.57;;;31.27;;
4074;SDS011;2052;53.522;9.806;2022-08-18T07:36:34;67.03;;;31.77;;
4074;SDS011;2052;53.522;9.806;2022-08-18T07:39:07;63.30;;;30.60;;
4074;SDS011;2052;53.522;9.806;2022-08-18T07:41:40;77.33;;;35.43;;
4074;SDS011;2052;53.522;9.806;2022-08-18T07:44:12;80.10;;;36.90;;
4074;SDS011;2052;53.522;9.806;2022-08-18T07:46:44;76.53;;;33.17;;
4074;SDS011;2052;53.522;9.806;2022-08-18T07:49:17;77.23;;;34.57;;
4074;SDS011;2052;53.522;9.806;2022-08-18T07:51:46;76.80;;;33.83;;
4074;SDS011;2052;53.522;9.806;2022-08-18T07:54:17;85.30;;;33.47;;
4074;SDS011;2052;53.522;9.806;2022-08-18T07:56:52;76.60;;;35.70;;
4074;SDS011;2052;53.522;9.806;2022-08-18T07:59:23;95.27;;;35.83;;
4074;SDS011;2052;53.522;9.806;2022-08-18T08:01:53;83.53;;;35.40;;
4074;SDS011;2052;53.522;9.806;2022-08-18T08:04:23;82.07;;;34.67;;
4074;SDS011;2052;53.522;9.806;2022-08-18T08:06:57;82.73;;;34.87;;
4074;SDS011;2052;53.522;9.806;2022-08-18T08:09:28;80.70;;;35.00;;
4074;SDS011;2052;53.522;9.806;2022-08-18T08:12:01;73.67;;;33.00;;
4074;SDS011;2052;53.522;9.806;2022-08-18T08:14:36;77.87;;;33.80;;
4074;SDS011;2052;53.522;9.806;2022-08-18T08:17:18;69.13;;;32.60;;
4074;SDS011;2052;53.522;9.806;2022-08-18T08:20:03;71.17;;;31.37;;
4074;SDS011;2052;53.522;9.806;2022-08-18T08:22:38;61.53;;;28.50;;
4074;SDS011;2052;53.522;9.806;2022-08-18T08:25:12;54.27;;;26.30;;
4074;SDS011;2052;53.522;9.806;2022-08-18T08:27:49;59.70;;;29.03;;
4074;SDS011;2052;53.522;9.806;2022-08-18T08:30:24;53.57;;;27.27;;
4074;SDS011;2052;53.522;9.806;2022-08-18T08:32:58;60.87;;;27.67;;
4074;SDS011;2052;53.522;9.806;2022-08-18T08:35:32;48.03;;;24.97;;
4074;SDS011;2052;53.522;9.806;2022-08-18T08:38:05;46.00;;;25.03;;
4074;SDS011;2052;53.522;9.806;2022-08-18T08:40:42;44.50;;;24.70;;
4074;SDS011;2052;53.522;9.806;2022-08-18T08:43:20;44.70;;;23.80;;
4074;SDS011;2052;53.522;9.806;2022-08-18T08:45:54;49.63;;;24.73;;
4074;SDS011;2052;53.522;9.806;2022-08-18T08:48:28;38.03;;;23.63;;
4074;SDS011;2052;53.522;9.806;2022-08-18T08:51:02;45.93;;;23.77;;
4074;SDS011;2052;53.522;9.806;2022-08-18T08:53:37;41.23;;;23.13;;
4074;SDS011;2052;53.522;9.806;2022-08-18T08:56:05;44.33;;;24.00;;
4074;SDS011;2052;53.522;9.806;2022-08-18T08:58:36;37.87;;;22.77;;
4074;SDS011;2052;53.522;9.806;2022-08-18T09:01:06;37.47;;;23.17;;
4074;SDS011;2052;53.522;9.806;2022-08-18T09:03:38;41.03;;;23.60;;
4074;SDS011;2052;53.522;9.806;2022-08-18T09:06:13;36.40;;;21.40;;
4074;SDS011;2052;53.522;9.806;2022-08-18T09:08:53;36.37;;;20.80;;
4074;SDS011;2052;53.522;9.806;2022-08-18T09:11:30;37.13;;;20.30;;
4074;SDS011;2052;53.522;9.806;2022-08-18T09:14:24;32.70;;;20.73;;
4074;SDS011;2052;53.522;9.806;2022-08-18T09:17:15;28.87;;;19.43;;
4074;SDS011;2052;53.522;9.806;2022-08-18T09:20:00;35.90;;;22.10;;
4074;SDS011;2052;53.522;9.806;2022-08-18T09:22:35;33.60;;;21.40;;
4074;SDS011;2052;53.522;9.806;2022-08-18T09:25:28;36.47;;;21.87;;
4074;SDS011;2052;53.522;9.806;2022-08-18T09:28:05;37.00;;;22.53;;
4074;SDS011;2052;53.522;9.806;2022-08-18T09:30:57;28.67;;;19.60;;
4074;SDS011;2052;53.522;9.806;2022-08-18T09:33:46;32.43;;;20.73;;
4074;SDS011;2052;53.522;9.806;2022-08-18T09:36:27;40.03;;;23.83;;
4074;SDS011;2052;53.522;9.806;2022-08-18T09:39:05;42.83;;;23.03;;
4074;SDS011;2052;53.522;9.806;2022-08-18T09:42:02;37.43;;;22.23;;
4074;SDS011;2052;53.522;9.806;2022-08-18T09:50:31;35.27;;;21.40;;
4074;SDS011;2052;53.522;9.806;2022-08-18T09:53:14;31.63;;;21.27;;
4074;SDS011;2052;53.522;9.806;2022-08-18T09:58:48;31.00;;;20.80;;
4074;SDS011;2052;53.522;9.806;2022-08-18T10:01:31;35.30;;;21.70;;
4074;SDS011;2052;53.522;9.806;2022-08-18T10:04:17;27.43;;;18.80;;
4074;SDS011;2052;53.522;9.806;2022-08-18T10:06:51;29.33;;;19.90;;
4074;SDS011;2052;53.522;9.806;2022-08-18T10:09:31;27.00;;;18.97;;
4074;SDS011;2052;53.522;9.806;2022-08-18T10:12:09;32.57;;;22.07;;
4074;SDS011;2052;53.522;9.806;2022-08-18T10:17:47;30.10;;;20.27;;
4074;SDS011;2052;53.522;9.806;2022-08-18T10:20:29;38.03;;;21.47;;
4074;SDS011;2052;53.522;9.806;2022-08-18T10:23:02;30.10;;;20.77;;
4074;SDS011;2052;53.522;9.806;2022-08-18T10:25:33;30.07;;;19.60;;
4074;SDS011;2052;53.522;9.806;2022-08-18T10:28:03;32.20;;;20.63;;
4074;SDS011;2052;53.522;9.806;2022-08-18T10:36:36;25.70;;;17.60;;
4074;SDS011;2052;53.522;9.806;2022-08-18T10:39:09;24.77;;;18.70;;
4074;SDS011;2052;53.522;9.806;2022-08-18T10:41:43;23.27;;;17.10;;
4074;SDS011;2052;53.522;9.806;2022-08-18T10:44:18;23.40;;;17.53;;
4074;SDS011;2052;53.522;9.806;2022-08-18T10:46:48;25.00;;;18.73;;
4074;SDS011;2052;53.522;9.806;2022-08-18T10:49:17;25.53;;;17.87;;
4074;SDS011;2052;53.522;9.806;2022-08-18T10:51:58;23.97;;;17.87;;
4074;SDS011;2052;53.522;9.806;2022-08-18T10:57:51;22.43;;;17.20;;
4074;SDS011;2052;53.522;9.806;2022-08-18T11:00:35;19.20;;;15.67;;
4074;SDS011;2052;53.522;9.806;2022-08-18T11:03:11;19.53;;;15.63;;
4074;SDS011;2052;53.522;9.806;2022-08-18T11:05:42;20.60;;;15.60;;
4074;SDS011;2052;53.522;9.806;2022-08-18T11:08:11;22.53;;;16.03;;
4074;SDS011;2052;53.522;9.806;2022-08-18T11:10:42;21.87;;;16.30;;
4074;SDS011;2052;53.522;9.806;2022-08-18T11:13:13;18.17;;;14.20;;
4074;SDS011;2052;53.522;9.806;2022-08-18T11:15:48;21.80;;;16.30;;
4074;SDS011;2052;53.522;9.806;2022-08-18T11:18:25;19.33;;;14.10;;
4074;SDS011;2052;53.522;9.806;2022-08-18T11:24:05;20.40;;;15.07;;
4074;SDS011;2052;53.522;9.806;2022-08-18T11:26:35;19.80;;;14.60;;
4074;SDS011;2052;53.522;9.806;2022-08-18T11:29:15;19.17;;;15.10;;
4074;SDS011;2052;53.522;9.806;2022-08-18T11:31:54;19.00;;;15.17;;
4074;SDS011;2052;53.522;9.806;2022-08-18T11:34:24;19.07;;;13.50;;
4074;SDS011;2052;53.522;9.806;2022-08-18T11:36:56;17.93;;;14.57;;
4074;SDS011;2052;53.522;9.806;2022-08-18T11:39:25;17.20;;;13.20;;
4074;SDS011;2052;53.522;9.806;2022-08-18T11:41:52;17.80;;;14.13;;
4074;SDS011;2052;53.522;9.806;2022-08-18T11:44:20;20.73;;;15.10;;
4074;SDS011;2052;53.522;9.806;2022-08-18T11:46:53;18.80;;;13.40;;
4074;SDS011;2052;53.522;9.806;2022-08-18T11:49:27;20.73;;;13.90;;
4074;SDS011;2052;53.522;9.806;2022-08-18T11:51:59;17.07;;;12.30;;
4074;SDS011;2052;53.522;9.806;2022-08-18T11:54:34;16.50;;;13.53;;
4074;SDS011;2052;53.522;9.806;2022-08-18T12:03:02;15.57;;;12.13;;
4074;SDS011;2052;53.522;9.806;2022-08-18T12:05:29;15.97;;;12.47;;
4074;SDS011;2052;53.522;9.806;2022-08-18T12:08:15;16.90;;;11.67;;
4074;SDS011;2052;53.522;9.806;2022-08-18T12:10:45;17.80;;;13.07;;
4074;SDS011;2052;53.522;9.806;2022-08-18T12:13:19;16.50;;;11.73;;
4074;SDS011;2052;53.522;9.806;2022-08-18T12:15:47;17.57;;;12.90;;
4074;SDS011;2052;53.522;9.806;2022-08-18T12:18:35;17.70;;;12.50;;
4074;SDS011;2052;53.522;9.806;2022-08-18T12:21:01;14.37;;;12.30;;
4074;SDS011;2052;53.522;9.806;2022-08-18T12:23:28;15.50;;;12.47;;
4074;SDS011;2052;53.522;9.806;2022-08-18T12:25:56;15.20;;;12.10;;
4074;SDS011;2052;53.522;9.806;2022-08-18T12:28:23;15.27;;;12.90;;
4074;SDS011;2052;53.522;9.806;2022-08-18T12:30:51;20.80;;;11.60;;
4074;SDS011;2052;53.522;9.806;2022-08-18T12:33:17;15.03;;;10.43;;
4074;SDS011;2052;53.522;9.806;2022-08-18T12:35:44;13.00;;;10.47;;
4074;SDS011;2052;53.522;9.806;2022-08-18T12:38:11;12.60;;;10.40;;
4074;SDS011;2052;53.522;9.806;2022-08-18T12:40:38;14.00;;;10.80;;
4074;SDS011;2052;53.522;9.806;2022-08-18T12:43:06;14.73;;;11.20;;
4074;SDS011;2052;53.522;9.806;2022-08-18T12:45:33;13.27;;;10.10;;
4074;SDS011;2052;53.522;9.806;2022-08-18T12:47:59;11.80;;;10.60;;
4074;SDS011;2052;53.522;9.806;2022-08-18T12:50:26;14.93;;;10.30;;
4074;SDS011;2052;53.522;9.806;2022-08-18T12:52:53;17.03;;;10.50;;
4074;SDS011;2052;53.522;9.806;2022-08-18T12:55:20;15.03;;;11.13;;
4074;SDS011;2052;53.522;9.806;2022-08-18T12:57:47;13.03;;;10.27;;
4074;SDS011;2052;53.522;9.806;2022-08-18T13:00:15;13.10;;;10.50;;
4074;SDS011;2052;53.522;9.806;2022-08-18T13:02:42;11.37;;;9.73;;
4074;SDS011;2052;53.522;9.806;2022-08-18T13:05:11;10.93;;;9.83;;
4074;SDS011;2052;53.522;9.806;2022-08-18T13:07:38;12.10;;;10.40;;
4074;SDS011;2052;53.522;9.806;2022-08-18T13:10:06;10.50;;;9.23;;
4074;SDS011;2052;53.522;9.806;2022-08-18T13:12:33;16.30;;;9.73;;
4074;SDS011;2052;53.522;9.806;2022-08-18T13:15:00;13.67;;;10.20;;
4074;SDS011;2052;53.522;9.806;2022-08-18T13:17:28;14.53;;;10.97;;
4074;SDS011;2052;53.522;9.806;2022-08-18T13:19:55;12.10;;;9.30;;
4074;SDS011;2052;53.522;9.806;2022-08-18T13:22:22;18.73;;;9.73;;
4074;SDS011;2052;53.522;9.806;2022-08-18T13:24:49;11.30;;;10.13;;
4074;SDS011;2052;53.522;9.806;2022-08-18T13:27:15;12.70;;;11.10;;
4074;SDS011;2052;53.522;9.806;2022-08-18T13:29:44;14.10;;;11.50;;
4074;SDS011;2052;53.522;9.806;2022-08-18T13:32:10;16.30;;;12.33;;
4074;SDS011;2052;53.522;9.806;2022-08-18T13:34:40;11.73;;;9.93;;
4074;SDS011;2052;53.522;9.806;2022-08-18T13:37:06;11.33;;;9.63;;
4074;SDS011;2052;53.522;9.806;2022-08-18T13:39:33;12.60;;;10.20;;
4074;SDS011;2052;53.522;9.806;2022-08-18T13:42:00;11.30;;;9.33;;
4074;SDS011;2052;53.522;9.806;2022-08-18T13:44:27;14.60;;;10.97;;
4074;SDS011;2052;53.522;9.806;2022-08-18T13:46:54;13.13;;;11.77;;
4074;SDS011;2052;53.522;9.806;2022-08-18T13:49:21;15.10;;;10.30;;
4074;SDS011;2052;53.522;9.806;2022-08-18T13:51:51;15.80;;;11.20;;
4074;SDS011;2052;53.522;9.806;2022-08-18T13:54:24;10.43;;;9.43;;
4074;SDS011;2052;53.522;9.806;2022-08-18T13:56:52;12.10;;;9.37;;
4074;SDS011;2052;53.522;9.806;2022-08-18T13:59:19;12.57;;;9.70;;
4074;SDS011;2052;53.522;9.806;2022-08-18T14:01:47;12.33;;;10.40;;
4074;SDS011;2052;53.522;9.806;2022-08-18T14:04:14;18.40;;;14.20;;
4074;SDS011;2052;53.522;9.806;2022-08-18T14:06:41;19.53;;;14.50;;
4074;SDS011;2052;53.522;9.806;2022-08-18T14:09:09;18.97;;;15.17;;
4074;SDS011;2052;53.522;9.806;2022-08-18T14:11:37;18.20;;;14.20;;
4074;SDS011;2052;53.522;9.806;2022-08-18T14:14:04;19.80;;;16.47;;
4074;SDS011;2052;53.522;9.806;2022-08-18T14:16:31;17.93;;;15.17;;
4074;SDS011;2052;53.522;9.806;2022-08-18T14:18:58;18.93;;;14.67;;
4074;SDS011;2052;53.522;9.806;2022-08-18T14:21:40;17.63;;;13.40;;
4074;SDS011;2052;53.522;9.806;2022-08-18T14:24:27;16.90;;;14.30;;
4074;SDS011;2052;53.522;9.806;2022-08-18T14:27:11;15.10;;;13.50;;
4074;SDS011;2052;53.522;9.806;2022-08-18T14:29:38;17.10;;;14.03;;
4074;SDS011;2052;53.522;9.806;2022-08-18T14:32:07;17.87;;;14.73;;
4074;SDS011;2052;53.522;9.806;2022-08-18T14:34:35;18.03;;;13.60;;
4074;SDS011;2052;53.522;9.806;2022-08-18T14:37:02;16.27;;;13.83;;
4074;SDS011;2052;53.522;9.806;2022-08-18T14:39:30;16.63;;;14.33;;
4074;SDS011;2052;53.522;9.806;2022-08-18T14:41:56;17.33;;;14.20;;
4074;SDS011;2052;53.522;9.806;2022-08-18T14:44:23;16.73;;;14.10;;
4074;SDS011;2052;53.522;9.806;2022-08-18T14:46:50;19.60;;;14.67;;
4074;SDS011;2052;53.522;9.806;2022-08-18T14:49:17;18.43;;;14.10;;
4074;SDS011;2052;53.522;9.806;2022-08-18T14:51:45;18.37;;;13.80;;
4074;SDS011;2052;53.522;9.806;2022-08-18T14:54:12;16.23;;;13.93;;
4074;SDS011;2052;53.522;9.806;2022-08-18T14:56:40;18.40;;;13.40;;
4074;SDS011;2052;53.522;9.806;2022-08-18T14:59:07;15.50;;;12.10;;
4074;SDS011;2052;53.522;9.806;2022-08-18T15:01:34;12.53;;;10.67;;
4074;SDS011;2052;53.522;9.806;2022-08-18T15:04:02;18.60;;;12.77;;
4074;SDS011;2052;53.522;9.806;2022-08-18T15:06:29;13.30;;;11.80;;
4074;SDS011;2052;53.522;9.806;2022-08-18T15:08:56;15.67;;;11.90;;
4074;SDS011;2052;53.522;9.806;2022-08-18T15:11:23;13.67;;;10.80;;
4074;SDS011;2052;53.522;9.806;2022-08-18T15:13:51;14.50;;;11.87;;
4074;SDS011;2052;53.522;9.806;2022-08-18T15:16:18;18.10;;;12.30;;
4074;SDS011;2052;53.522;9.806;2022-08-18T15:18:46;14.37;;;11.77;;
4074;SDS011;2052;53.522;9.806;2022-08-18T15:21:13;14.97;;;12.47;;
4074;SDS011;2052;53.522;9.806;2022-08-18T15:23:58;14.20;;;12.07;;
4074;SDS011;2052;53.522;9.806;2022-08-18T15:26:42;14.87;;;12.70;;
4074;SDS011;2052;53.522;9.806;2022-08-18T15:29:11;18.57;;;12.20;;
4074;SDS011;2052;53.522;9.806;2022-08-18T15:31:38;14.30;;;12.80;;
4074;SDS011;2052;53.522;9.806;2022-08-18T15:34:04;12.87;;;11.20;;
4074;SDS011;2052;53.522;9.806;2022-08-18T15:36:31;13.17;;;11.70;;
4074;SDS011;2052;53.522;9.806;2022-08-18T15:39:00;14.13;;;11.30;;
4074;SDS011;2052;53.522;9.806;2022-08-18T15:41:31;13.97;;;11.33;;
4074;SDS011;2052;53.522;9.806;2022-08-18T15:43:59;11.87;;;10.63;;